createdAt,value
2019-03-22T00:00:26.273Z,23.52
2019-03-22T00:03:00.278Z,25.65
2019-03-22T00:05:32.287Z,22.77
2019-03-22T00:08:04.572Z,21.50
2019-03-22T00:10:36.846Z,27.20
2019-03-22T00:13:08.964Z,23.18
2019-03-22T00:15:41.356Z,23.95
2019-03-22T00:18:13.483Z,23.45
2019-03-22T00:20:45.621Z,23.12
2019-03-22T00:23:17.477Z,27.17
2019-03-22T00:25:49.639Z,22.07
2019-03-22T00:28:21.906Z,25.75
2019-03-22T00:30:54.543Z,22.50
2019-03-22T00:33:26.660Z,22.93
2019-03-22T00:35:58.751Z,21.52
2019-03-22T00:38:31.104Z,23.47
2019-03-22T00:41:03.139Z,22.40
2019-03-22T00:43:35.157Z,25.43
2019-03-22T00:46:08.729Z,22.45
2019-03-22T00:48:40.977Z,22.98
2019-03-22T00:51:13.210Z,22.95
2019-03-22T00:53:45.441Z,22.13
2019-03-22T00:56:17.921Z,21.33
2019-03-22T00:58:50.360Z,24.50
2019-03-22T01:01:23.121Z,24.30
2019-03-22T01:03:55.652Z,20.72
2019-03-22T01:06:28.561Z,20.72
2019-03-22T01:09:01.132Z,18.05
2019-03-22T01:11:34.717Z,23.55
2019-03-22T01:14:07.185Z,23.47
2019-03-22T01:16:40.451Z,21.40
2019-03-22T01:19:12.602Z,21.62
2019-03-22T01:21:45.203Z,19.75
2019-03-22T01:24:17.452Z,18.07
2019-03-22T01:26:49.715Z,21.15
2019-03-22T01:29:22.273Z,17.42
2019-03-22T01:31:54.162Z,21.65
2019-03-22T01:34:26.087Z,23.10
2019-03-22T01:36:58.183Z,20.30
2019-03-22T01:39:30.309Z,24.37
2019-03-22T01:42:02.634Z,20.77
2019-03-22T01:44:34.848Z,22.67
2019-03-22T01:47:06.837Z,22.98
2019-03-22T01:49:39.167Z,24.07
2019-03-22T01:52:11.273Z,21.15
2019-03-22T01:54:44.169Z,22.75
2019-03-22T01:57:16.352Z,21.35
2019-03-22T01:59:48.603Z,23.02
2019-03-22T02:02:20.477Z,21.27
2019-03-22T02:04:52.618Z,37.73
2019-03-22T02:07:24.824Z,57.38
2019-03-22T02:09:56.942Z,29.23
2019-03-22T02:12:29.015Z,20.25
2019-03-22T02:15:01.045Z,24.67
2019-03-22T02:17:33.126Z,22.95
2019-03-22T02:20:06.486Z,23.67
2019-03-22T02:22:38.340Z,23.25
2019-03-22T02:25:10.573Z,18.80
2019-03-22T02:27:43.189Z,18.82
2019-03-22T02:30:16.632Z,49.67
2019-03-22T02:32:48.690Z,53.33
2019-03-22T02:35:29.226Z,76.45
2019-03-22T02:37:54.333Z,134.85
2019-03-22T02:40:26.325Z,31.23
2019-03-22T02:42:58.448Z,21.02
2019-03-22T02:45:30.423Z,21.68
2019-03-22T02:48:02.631Z,21.42
2019-03-22T02:50:34.650Z,20.20
2019-03-22T02:53:06.813Z,19.17
2019-03-22T02:55:38.838Z,22.95
2019-03-22T02:58:20.295Z,21.70
2019-03-22T03:00:44.453Z,18.82
2019-03-22T03:03:16.468Z,17.67
2019-03-22T03:05:48.455Z,20.60
2019-03-22T03:08:20.349Z,21.87
2019-03-22T03:10:52.394Z,20.68
2019-03-22T03:13:24.565Z,19.92
2019-03-22T03:15:56.686Z,19.30
2019-03-22T03:18:28.749Z,19.98
2019-03-22T03:21:01.909Z,20.10
2019-03-22T03:23:34.004Z,19.25
2019-03-22T03:26:06.358Z,20.90
2019-03-22T03:28:38.436Z,22.70
2019-03-22T03:31:10.605Z,22.80
2019-03-22T03:33:42.742Z,18.73
2019-03-22T03:36:15.032Z,19.67
2019-03-22T03:38:47.528Z,17.92
2019-03-22T03:41:19.551Z,18.52
2019-03-22T03:43:51.956Z,20.72
2019-03-22T03:46:24.139Z,20.75
2019-03-22T03:48:56.358Z,23.70
2019-03-22T03:51:28.594Z,24.80
2019-03-22T03:54:01.605Z,23.87
2019-03-22T03:56:34.898Z,19.60
2019-03-22T03:59:06.825Z,23.42
2019-03-22T04:01:39.257Z,26.50
2019-03-22T04:04:11.177Z,45.83
2019-03-22T04:06:43.108Z,28.25
2019-03-22T04:09:15.227Z,18.57
2019-03-22T04:11:47.323Z,18.23
2019-03-22T04:14:19.425Z,20.15
2019-03-22T04:16:51.579Z,16.70
2019-03-22T04:19:23.518Z,18.80
2019-03-22T04:21:57.315Z,14.20
2019-03-22T04:24:29.361Z,17.42
2019-03-22T04:27:01.363Z,18.60
2019-03-22T04:29:34.387Z,16.80
2019-03-22T04:32:06.322Z,13.98
2019-03-22T04:34:38.339Z,16.17
2019-03-22T04:37:12.149Z,13.83
2019-03-22T04:39:43.988Z,15.65
2019-03-22T04:42:16.216Z,14.90
2019-03-22T04:44:48.399Z,14.93
2019-03-22T04:47:21.721Z,12.63
2019-03-22T04:49:55.394Z,10.70
2019-03-22T04:52:28.427Z,12.93
2019-03-22T04:55:01.779Z,12.53
2019-03-22T04:57:35.814Z,11.63
2019-03-22T05:00:08.943Z,11.35
2019-03-22T05:02:42.556Z,11.33
2019-03-22T05:05:15.482Z,11.85
2019-03-22T05:07:48.194Z,12.80
2019-03-22T05:10:21.387Z,11.83
2019-03-22T05:12:55.965Z,9.18
2019-03-22T05:15:29.556Z,9.78
2019-03-22T05:18:03.177Z,7.92
2019-03-22T05:20:36.574Z,10.20
2019-03-22T05:23:09.504Z,10.35
2019-03-22T05:25:43.213Z,10.15
2019-03-22T05:28:15.770Z,9.58
2019-03-22T05:31:32.851Z,9.50
2019-03-22T05:34:04.841Z,7.58
2019-03-22T05:36:36.774Z,11.22
2019-03-22T05:39:10.444Z,7.95
2019-03-22T05:41:42.597Z,7.67
2019-03-22T05:44:14.511Z,7.78
2019-03-22T05:46:48.898Z,6.53
2019-03-22T05:49:20.238Z,8.38
2019-03-22T05:51:52.544Z,9.30
2019-03-22T05:54:24.661Z,9.55
2019-03-22T05:56:57.137Z,7.90
2019-03-22T05:59:29.182Z,7.12
2019-03-22T06:02:02.017Z,9.33
2019-03-22T06:04:33.867Z,5.78
2019-03-22T06:07:05.790Z,7.50
2019-03-22T06:09:37.708Z,5.87
2019-03-22T06:12:09.531Z,6.55
2019-03-22T06:14:41.405Z,5.78
2019-03-22T06:17:13.365Z,7.03
2019-03-22T06:19:45.542Z,8.18
2019-03-22T06:22:17.646Z,7.87
2019-03-22T06:24:49.630Z,6.28
2019-03-22T06:27:21.761Z,8.30
2019-03-22T06:29:55.493Z,6.00
2019-03-22T06:32:27.524Z,6.08
2019-03-22T06:34:59.655Z,5.00
2019-03-22T06:37:31.908Z,5.30
2019-03-22T06:40:04.386Z,11.83
2019-03-22T06:42:36.428Z,4.45
2019-03-22T06:45:09.142Z,7.10
2019-03-22T06:47:41.417Z,7.62
2019-03-22T06:50:15.100Z,7.45
2019-03-22T06:52:47.316Z,4.83
2019-03-22T06:55:20.533Z,4.75
2019-03-22T06:57:52.490Z,4.90
2019-03-22T07:00:24.661Z,5.22
2019-03-22T07:02:56.698Z,4.20
2019-03-22T07:05:28.737Z,5.05
2019-03-22T07:08:00.995Z,8.98
2019-03-22T07:10:32.878Z,6.42
2019-03-22T07:13:05.177Z,5.17
2019-03-22T07:15:37.334Z,3.40
2019-03-22T07:18:09.267Z,5.87
2019-03-22T07:20:41.197Z,3.52
2019-03-22T07:23:13.434Z,2.95
2019-03-22T07:25:45.613Z,3.58
2019-03-22T07:28:17.700Z,5.40
2019-03-22T07:30:49.944Z,6.40
2019-03-22T07:33:21.958Z,5.03
2019-03-22T07:35:53.981Z,3.20
2019-03-22T07:38:25.949Z,5.35
2019-03-22T07:40:58.006Z,5.30
2019-03-22T07:43:30.225Z,7.35
2019-03-22T07:46:02.340Z,3.90
2019-03-22T07:48:34.526Z,3.90
2019-03-22T07:51:07.105Z,4.78
2019-03-22T07:53:39.312Z,5.20
2019-03-22T07:56:11.331Z,6.28
2019-03-22T07:58:43.521Z,4.50
2019-03-22T08:01:15.402Z,2.70
2019-03-22T08:03:47.611Z,2.65
2019-03-22T08:06:19.952Z,3.52
2019-03-22T08:08:51.992Z,3.37
2019-03-22T08:11:24.957Z,2.67
2019-03-22T08:13:57.027Z,4.00
2019-03-22T08:16:29.463Z,3.08
2019-03-22T08:19:01.605Z,3.05
2019-03-22T08:21:33.954Z,3.58
2019-03-22T08:24:06.292Z,3.85
2019-03-22T08:26:38.727Z,2.40
2019-03-22T08:29:10.839Z,4.95
2019-03-22T08:31:42.663Z,2.08
2019-03-22T08:34:14.681Z,2.10
2019-03-22T08:36:46.870Z,4.15
2019-03-22T08:39:18.950Z,1.95
2019-03-22T08:41:51.157Z,2.90
2019-03-22T08:44:23.730Z,2.72
2019-03-22T08:46:55.742Z,2.65
2019-03-22T08:49:28.242Z,2.83
2019-03-22T08:52:00.309Z,3.72
2019-03-22T08:54:32.316Z,5.12
2019-03-22T08:57:04.506Z,3.00
2019-03-22T08:59:36.702Z,4.80
2019-03-22T09:02:11.754Z,2.98
2019-03-22T09:04:43.836Z,5.45
2019-03-22T09:07:15.689Z,4.78
2019-03-22T09:09:48.821Z,4.53
2019-03-22T09:12:20.843Z,3.95
2019-03-22T09:14:52.929Z,5.15
2019-03-22T09:17:24.958Z,2.35
2019-03-22T09:19:57.187Z,2.95
2019-03-22T09:22:30.248Z,3.33
2019-03-22T09:25:02.402Z,3.85
2019-03-22T09:27:36.568Z,4.30
2019-03-22T09:30:08.738Z,3.55
2019-03-22T09:32:40.857Z,2.50
2019-03-22T09:35:13.246Z,2.92
2019-03-22T09:37:45.346Z,4.28
2019-03-22T09:40:18.151Z,6.62
2019-03-22T09:42:52.953Z,4.10
2019-03-22T09:45:24.293Z,7.10
2019-03-22T09:47:57.547Z,4.55
2019-03-22T09:50:29.685Z,3.85
2019-03-22T09:53:01.742Z,3.17
2019-03-22T09:55:34.882Z,5.58
2019-03-22T09:58:07.405Z,3.42
2019-03-22T10:00:39.517Z,3.55
2019-03-22T10:03:12.028Z,4.30
2019-03-22T10:05:44.125Z,5.03
2019-03-22T10:08:16.401Z,5.80
2019-03-22T10:10:48.638Z,3.65
2019-03-22T10:13:20.906Z,5.00
2019-03-22T10:15:53.427Z,3.47
2019-03-22T10:18:25.487Z,5.25
2019-03-22T10:20:57.606Z,6.20
2019-03-22T10:23:30.092Z,6.05
2019-03-22T10:26:02.275Z,3.20
2019-03-22T10:28:34.519Z,5.30
2019-03-22T10:31:06.733Z,5.37
2019-03-22T10:33:39.084Z,4.00
2019-03-22T10:36:11.171Z,6.85
2019-03-22T10:38:43.363Z,5.42
2019-03-22T10:41:15.332Z,4.87
2019-03-22T10:43:47.140Z,6.37
2019-03-22T10:46:19.263Z,4.42
2019-03-22T10:48:51.596Z,4.78
2019-03-22T10:51:23.945Z,4.08
2019-03-22T10:53:56.003Z,5.08
2019-03-22T10:56:27.955Z,4.42
2019-03-22T10:58:59.899Z,4.85
2019-03-22T11:01:31.825Z,4.45
2019-03-22T11:06:36.250Z,3.72
2019-03-22T11:09:09.889Z,4.25
2019-03-22T11:11:43.345Z,4.35
2019-03-22T11:14:16.265Z,4.12
2019-03-22T11:16:48.221Z,5.60
2019-03-22T11:19:20.322Z,5.28
2019-03-22T11:21:52.210Z,3.72
2019-03-22T11:24:24.120Z,2.50
2019-03-22T11:26:56.375Z,4.37
2019-03-22T11:29:29.052Z,4.28
2019-03-22T11:32:01.458Z,3.02
2019-03-22T11:34:33.623Z,4.83
2019-03-22T11:37:07.721Z,3.80
2019-03-22T11:39:39.857Z,4.47
2019-03-22T11:42:12.518Z,5.47
2019-03-22T11:44:44.466Z,5.08
2019-03-22T11:47:16.873Z,5.40
2019-03-22T11:49:48.989Z,3.30
2019-03-22T11:52:20.988Z,4.78
2019-03-22T11:54:53.333Z,3.95
2019-03-22T11:57:25.346Z,4.55
2019-03-22T11:59:57.597Z,2.83
2019-03-22T12:02:29.489Z,4.05
2019-03-22T12:05:01.545Z,5.65
2019-03-22T12:07:33.558Z,3.80
2019-03-22T12:10:25.986Z,4.45
2019-03-22T12:12:58.277Z,2.70
2019-03-22T12:15:30.615Z,2.60
2019-03-22T12:18:02.956Z,3.52
2019-03-22T12:20:34.781Z,2.02
2019-03-22T12:23:06.636Z,2.42
2019-03-22T12:25:38.853Z,3.92
2019-03-22T12:28:11.046Z,2.08
2019-03-22T12:30:43.218Z,1.47
2019-03-22T12:33:15.229Z,2.08
2019-03-22T12:35:47.204Z,2.00
2019-03-22T12:38:19.383Z,1.52
2019-03-22T12:40:51.271Z,2.98
2019-03-22T12:43:23.404Z,2.55
2019-03-22T12:45:55.785Z,1.87
2019-03-22T12:48:27.904Z,1.95
2019-03-22T12:51:00.062Z,4.03
2019-03-22T12:53:32.691Z,5.62
2019-03-22T12:56:04.666Z,2.90
2019-03-22T12:58:36.600Z,2.35
2019-03-22T13:01:10.238Z,2.83
2019-03-22T13:03:42.622Z,3.22
2019-03-22T13:06:14.806Z,2.47
2019-03-22T13:08:46.774Z,3.58
2019-03-22T13:11:18.931Z,3.33
2019-03-22T13:13:51.244Z,3.60
2019-03-22T13:16:23.492Z,4.47
2019-03-22T13:18:55.549Z,2.08
2019-03-22T13:21:29.879Z,2.37
2019-03-22T13:24:02.047Z,4.37
2019-03-22T13:26:34.086Z,4.60
2019-03-22T13:29:06.032Z,4.35
2019-03-22T13:31:38.243Z,3.22
2019-03-22T13:34:10.390Z,4.03
2019-03-22T13:36:42.313Z,3.37
2019-03-22T13:39:14.898Z,5.33
2019-03-22T13:41:47.095Z,4.70
2019-03-22T13:44:19.255Z,3.87
2019-03-22T13:46:51.284Z,5.22
2019-03-22T13:49:23.489Z,4.90
2019-03-22T13:51:55.976Z,5.65
2019-03-22T13:54:28.078Z,4.50
2019-03-22T13:57:00.286Z,4.92
2019-03-22T13:59:32.249Z,5.87
2019-03-22T14:02:04.366Z,7.33
2019-03-22T14:04:36.365Z,4.40
2019-03-22T14:07:08.530Z,4.20
2019-03-22T14:09:40.717Z,5.45
2019-03-22T14:12:12.707Z,6.30
2019-03-22T14:14:44.834Z,5.12
2019-03-22T14:17:16.881Z,5.12
2019-03-22T14:19:49.167Z,3.62
2019-03-22T14:22:21.353Z,4.60
2019-03-22T14:24:53.745Z,5.20
2019-03-22T14:27:25.977Z,4.47
2019-03-22T14:29:57.929Z,5.37
2019-03-22T14:32:30.254Z,8.40
2019-03-22T14:35:02.217Z,9.08
2019-03-22T14:37:34.462Z,4.03
2019-03-22T14:40:07.193Z,4.55
2019-03-22T14:42:40.112Z,4.15
2019-03-22T14:45:12.619Z,3.75
2019-03-22T14:47:44.843Z,5.47
2019-03-22T14:50:17.226Z,7.60
2019-03-22T14:52:49.425Z,7.17
2019-03-22T14:55:21.686Z,8.15
2019-03-22T14:57:53.720Z,5.87
2019-03-22T15:00:26.250Z,6.08
2019-03-22T15:02:58.593Z,6.92
2019-03-22T15:05:31.087Z,6.55
2019-03-22T15:08:03.758Z,6.85
2019-03-22T15:10:35.738Z,8.18
2019-03-22T15:13:08.282Z,8.40
2019-03-22T15:15:42.299Z,9.38
2019-03-22T15:18:16.625Z,6.80
2019-03-22T15:20:56.330Z,12.63
2019-03-22T15:23:32.911Z,12.95
2019-03-22T15:26:15.689Z,7.45
2019-03-22T15:28:49.577Z,7.90
2019-03-22T15:31:25.993Z,7.87
2019-03-22T15:34:11.860Z,12.63
2019-03-22T15:36:57.408Z,43.35
2019-03-22T15:42:06.769Z,48.30
2019-03-22T15:44:39.200Z,29.87
2019-03-22T15:47:11.804Z,12.55
2019-03-22T15:49:43.942Z,10.03
2019-03-22T15:52:16.376Z,11.45
2019-03-22T15:54:48.336Z,19.98
2019-03-22T15:57:20.467Z,15.38
2019-03-22T15:59:53.717Z,63.00
2019-03-22T16:02:26.047Z,258.27
2019-03-22T16:07:28.674Z,155.60
2019-03-22T16:10:00.813Z,274.70
2019-03-22T16:12:32.736Z,202.68
2019-03-22T16:15:05.720Z,156.12
2019-03-22T16:17:37.946Z,120.82
2019-03-22T16:20:11.350Z,52.00
2019-03-22T16:22:44.201Z,22.73
2019-03-22T16:25:16.645Z,15.93
2019-03-22T17:40:18.150Z,118.93
2019-03-22T17:42:50.382Z,77.72
2019-03-22T17:45:22.808Z,53.95
2019-03-22T17:47:54.912Z,52.43
2019-03-22T17:50:27.025Z,61.15
2019-03-22T17:52:59.498Z,50.50
2019-03-22T17:55:31.478Z,39.58
2019-03-22T17:58:03.799Z,28.83
2019-03-22T18:00:36.138Z,29.15
2019-03-22T18:03:08.356Z,28.30
2019-03-22T18:05:40.680Z,30.72
2019-03-22T18:08:12.844Z,28.85
2019-03-22T18:10:44.869Z,29.20
2019-03-22T18:13:17.090Z,29.20
2019-03-22T18:15:49.522Z,31.75
2019-03-22T18:18:22.086Z,32.10
2019-03-22T18:20:54.498Z,27.58
2019-03-22T18:23:35.504Z,29.42
2019-03-22T18:26:00.741Z,33.25
2019-03-22T18:28:33.132Z,41.80
2019-03-22T18:31:05.328Z,78.00
2019-03-22T18:33:37.448Z,186.92
2019-03-22T18:36:09.631Z,274.92
2019-03-22T18:38:41.895Z,277.90
2019-03-22T18:41:14.400Z,247.00
2019-03-22T18:43:46.805Z,75.97
2019-03-22T18:46:19.011Z,92.40
2019-03-22T18:48:51.401Z,64.77
2019-03-22T18:51:23.712Z,58.85
2019-03-22T18:53:56.070Z,49.13
2019-03-22T18:56:28.306Z,42.30
2019-03-22T18:59:00.754Z,52.53
2019-03-22T19:01:32.612Z,46.23
2019-03-22T19:04:04.818Z,55.12
2019-03-22T19:06:37.439Z,53.33
2019-03-22T19:09:09.983Z,54.85
2019-03-22T19:11:42.347Z,54.42
2019-03-22T19:14:14.721Z,58.17
2019-03-22T19:16:46.581Z,61.18
2019-03-22T19:19:20.079Z,72.58
2019-03-22T19:22:02.405Z,84.00
2019-03-22T19:24:34.478Z,88.72
2019-03-22T19:27:06.605Z,74.42
2019-03-22T19:29:38.800Z,65.40
2019-03-22T19:32:13.805Z,54.23
2019-03-22T19:34:53.892Z,45.67
2019-03-22T19:37:19.567Z,36.70
2019-03-22T19:39:51.697Z,78.12
2019-03-22T19:42:25.670Z,134.05
2019-03-22T19:44:57.913Z,133.78
2019-03-22T19:47:30.009Z,183.82
2019-03-22T19:50:02.336Z,150.95
2019-03-22T19:52:34.879Z,152.00
2019-03-22T19:55:07.797Z,102.58
2019-03-22T19:57:40.145Z,100.20
2019-03-22T20:00:12.586Z,95.32
2019-03-22T20:02:45.073Z,107.35
2019-03-22T20:05:37.692Z,110.68
2019-03-22T20:08:13.666Z,105.40
2019-03-22T20:10:43.447Z,138.55
2019-03-22T20:13:15.570Z,160.97
2019-03-22T20:15:48.273Z,169.68
2019-03-22T20:18:20.642Z,146.50
2019-03-22T20:20:53.051Z,66.65
2019-03-22T20:23:25.237Z,58.48
2019-03-22T20:25:57.216Z,79.00
2019-03-22T20:28:29.500Z,51.18
2019-03-22T20:31:01.842Z,98.92
2019-03-22T20:33:33.864Z,261.10
2019-03-22T20:36:07.515Z,177.57
2019-03-22T20:38:40.154Z,164.93
2019-03-22T20:41:12.507Z,131.37
2019-03-22T20:43:44.694Z,149.00
2019-03-22T20:46:16.929Z,82.95
2019-03-22T20:48:49.124Z,71.97
2019-03-22T20:51:21.182Z,68.33
2019-03-22T20:53:53.487Z,62.58
2019-03-22T20:56:25.388Z,64.00
2019-03-22T20:58:57.428Z,71.17
2019-03-22T21:01:29.758Z,75.32
2019-03-22T21:04:01.909Z,86.37
2019-03-22T21:06:34.128Z,58.87
2019-03-22T21:09:07.408Z,57.95
2019-03-22T21:11:39.797Z,51.10
2019-03-22T21:14:11.972Z,49.10
2019-03-22T21:16:43.965Z,45.38
2019-03-22T21:19:16.340Z,48.58
2019-03-22T21:21:48.375Z,53.38
2019-03-22T21:24:20.477Z,69.45
2019-03-22T21:26:52.645Z,131.35
2019-03-22T21:29:25.178Z,127.42
2019-03-22T21:31:57.173Z,172.87
2019-03-22T21:34:30.487Z,235.48
2019-03-22T21:37:02.639Z,179.32
2019-03-22T21:39:34.907Z,161.32
2019-03-22T21:42:07.365Z,111.55
2019-03-22T21:44:39.942Z,125.70
2019-03-22T21:47:11.888Z,174.15
2019-03-22T21:49:44.010Z,168.95
2019-03-22T21:52:16.052Z,159.50
2019-03-22T21:54:48.298Z,187.43
2019-03-22T21:57:20.461Z,162.50
2019-03-22T21:59:53.689Z,196.70
2019-03-22T22:02:25.853Z,183.37
2019-03-22T22:04:58.010Z,130.07
2019-03-22T22:07:30.126Z,138.47
2019-03-22T22:10:02.041Z,119.45
2019-03-22T22:12:34.996Z,125.20
2019-03-22T22:15:12.088Z,72.22
2019-03-22T22:17:45.763Z,53.65
2019-03-22T22:20:28.445Z,44.98
2019-03-22T22:22:52.155Z,46.88
2019-03-22T22:25:24.395Z,72.65
2019-03-22T22:27:56.628Z,68.17
2019-03-22T22:30:28.877Z,64.32
2019-03-22T22:33:01.301Z,46.18
2019-03-22T22:35:33.412Z,34.63
2019-03-22T22:38:05.804Z,61.83
2019-03-22T22:40:38.039Z,60.52
2019-03-22T22:43:10.453Z,63.20
2019-03-22T22:45:42.467Z,52.88
2019-03-22T22:48:14.471Z,43.83
2019-03-22T22:50:46.843Z,46.92
2019-03-22T22:53:20.634Z,47.88
2019-03-22T22:55:52.880Z,56.60
2019-03-22T22:58:24.963Z,56.13
2019-03-22T23:00:57.339Z,79.27
2019-03-22T23:03:31.223Z,50.58
2019-03-22T23:06:09.396Z,44.88
2019-03-22T23:08:37.447Z,40.67
2019-03-22T23:11:09.975Z,37.58
2019-03-22T23:13:42.013Z,36.58
2019-03-22T23:16:14.064Z,35.52
2019-03-22T23:18:46.154Z,35.88
2019-03-22T23:21:18.366Z,53.13
2019-03-22T23:23:50.535Z,51.05
2019-03-22T23:26:22.601Z,55.55
2019-03-22T23:41:28.518Z,59.53
2019-03-22T23:44:00.778Z,153.45
2019-03-22T23:46:33.296Z,92.30
2019-03-22T23:49:05.619Z,53.83
2019-03-22T23:51:38.948Z,59.48
2019-03-22T23:54:11.414Z,56.00
2019-03-22T23:56:43.570Z,47.70
2019-03-22T23:59:15.683Z,44.00
